sensor_id;sensor_type;location;lat;lon;timestamp;pressure;altitude;pressure_sealevel;temperature;humidity
71638;BME280;59485;43.542;-5.676;2022-09-21T00:00:40;101990.09;;;16.65;66.03
71638;BME280;59485;43.542;-5.676;2022-09-21T00:03:07;101997.16;;;16.68;65.79
71638;BME280;59485;43.542;-5.676;2022-09-21T00:05:33;102016.44;;;16.82;65.70
71638;BME280;59485;43.542;-5.676;2022-09-21T00:08:00;102012.84;;;16.82;65.91
71638;BME280;59485;43.542;-5.676;2022-09-21T00:10:27;102012.00;;;16.81;65.30
71638;BME280;59485;43.542;-5.676;2022-09-21T00:12:53;102001.44;;;16.70;65.66
71638;BME280;59485;43.542;-5.676;2022-09-21T00:15:20;102010.41;;;16.72;65.39
71638;BME280;59485;43.542;-5.676;2022-09-21T00:17:46;101984.28;;;16.60;65.07
71638;BME280;59485;43.542;-5.676;2022-09-21T00:20:13;102014.75;;;16.81;64.88
71638;BME280;59485;43.542;-5.676;2022-09-21T00:22:39;102005.13;;;16.77;65.06
71638;BME280;59485;43.542;-5.676;2022-09-21T00:25:07;101969.28;;;16.48;65.19
71638;BME280;59485;43.542;-5.676;2022-09-21T00:27:33;101983.28;;;16.61;64.90
71638;BME280;59485;43.542;-5.676;2022-09-21T00:30:00;102012.38;;;16.78;65.03
71638;BME280;59485;43.542;-5.676;2022-09-21T00:32:28;102010.66;;;16.77;64.72
71638;BME280;59485;43.542;-5.676;2022-09-21T00:34:56;102014.75;;;16.81;64.90
71638;BME280;59485;43.542;-5.676;2022-09-21T00:37:23;102000.84;;;16.75;64.75
71638;BME280;59485;43.542;-5.676;2022-09-21T00:39:49;101997.88;;;16.76;64.83
71638;BME280;59485;43.542;-5.676;2022-09-21T00:42:28;102000.06;;;16.81;64.51
71638;BME280;59485;43.542;-5.676;2022-09-21T00:44:54;101948.19;;;16.47;65.02
71638;BME280;59485;43.542;-5.676;2022-09-21T00:47:43;101972.88;;;16.63;64.35
71638;BME280;59485;43.542;-5.676;2022-09-21T00:50:13;102003.88;;;16.80;64.76
71638;BME280;59485;43.542;-5.676;2022-09-21T00:52:46;101957.44;;;16.54;64.61
71638;BME280;59485;43.542;-5.676;2022-09-21T00:55:33;101999.38;;;16.79;64.68
71638;BME280;59485;43.542;-5.676;2022-09-21T00:58:05;101969.44;;;16.61;64.57
71638;BME280;59485;43.542;-5.676;2022-09-21T01:00:35;101983.72;;;16.65;64.77
71638;BME280;59485;43.542;-5.676;2022-09-21T01:03:01;101986.75;;;16.70;64.71
71638;BME280;59485;43.542;-5.676;2022-09-21T01:05:28;102005.97;;;16.78;64.64
71638;BME280;59485;43.542;-5.676;2022-09-21T01:07:56;101956.28;;;16.48;64.77
71638;BME280;59485;43.542;-5.676;2022-09-21T01:10:25;101960.38;;;16.52;64.92
71638;BME280;59485;43.542;-5.676;2022-09-21T01:13:09;101975.22;;;16.66;64.77
71638;BME280;59485;43.542;-5.676;2022-09-21T01:18:51;101998.25;;;16.73;64.96
71638;BME280;59485;43.542;-5.676;2022-09-21T01:21:25;101984.13;;;16.62;64.94
71638;BME280;59485;43.542;-5.676;2022-09-21T01:26:47;101994.19;;;16.69;64.74
71638;BME280;59485;43.542;-5.676;2022-09-21T01:32:40;101941.31;;;16.36;64.76
71638;BME280;59485;43.542;-5.676;2022-09-21T01:38:47;101963.53;;;16.49;64.75
71638;BME280;59485;43.542;-5.676;2022-09-21T01:41:21;101971.25;;;16.54;64.86
71638;BME280;59485;43.542;-5.676;2022-09-21T01:43:53;101987.25;;;16.59;65.04
71638;BME280;59485;43.542;-5.676;2022-09-21T01:46:21;101985.84;;;16.63;64.98
71638;BME280;59485;43.542;-5.676;2022-09-21T01:49:06;101979.44;;;16.62;65.02
71638;BME280;59485;43.542;-5.676;2022-09-21T01:51:34;101985.00;;;16.62;65.19
71638;BME280;59485;43.542;-5.676;2022-09-21T01:54:08;101969.53;;;16.53;64.96
71638;BME280;59485;43.542;-5.676;2022-09-21T01:56:43;101932.50;;;16.26;65.17
71638;BME280;59485;43.542;-5.676;2022-09-21T02:06:57;101956.75;;;16.52;65.22
71638;BME280;59485;43.542;-5.676;2022-09-21T02:09:23;101968.28;;;16.56;65.33
71638;BME280;59485;43.542;-5.676;2022-09-21T02:11:49;101977.22;;;16.58;65.42
71638;BME280;59485;43.542;-5.676;2022-09-21T02:14:21;101962.03;;;16.47;65.76
71638;BME280;59485;43.542;-5.676;2022-09-21T02:22:12;101965.03;;;16.45;65.58
71638;BME280;59485;43.542;-5.676;2022-09-21T02:24:42;101959.25;;;16.47;65.64
71638;BME280;59485;43.542;-5.676;2022-09-21T02:30:01;101956.00;;;16.37;65.77
71638;BME280;59485;43.542;-5.676;2022-09-21T02:32:40;101970.75;;;16.44;65.40
71638;BME280;59485;43.542;-5.676;2022-09-21T02:35:30;101960.06;;;16.41;65.68
71638;BME280;59485;43.542;-5.676;2022-09-21T02:38:11;101968.41;;;16.47;65.87
71638;BME280;59485;43.542;-5.676;2022-09-21T02:43:24;101960.06;;;16.41;66.08
71638;BME280;59485;43.542;-5.676;2022-09-21T02:46:01;101951.06;;;16.32;65.99
71638;BME280;59485;43.542;-5.676;2022-09-21T02:48:36;101943.38;;;16.28;66.18
71638;BME280;59485;43.542;-5.676;2022-09-21T02:51:08;101935.25;;;16.26;66.12
71638;BME280;59485;43.542;-5.676;2022-09-21T02:53:37;101951.06;;;16.32;66.31
71638;BME280;59485;43.542;-5.676;2022-09-21T02:56:06;101956.19;;;16.35;66.55
71638;BME280;59485;43.542;-5.676;2022-09-21T02:58:53;101955.78;;;16.38;66.49
71638;BME280;59485;43.542;-5.676;2022-09-21T03:01:23;101924.09;;;16.20;66.38
71638;BME280;59485;43.542;-5.676;2022-09-21T03:03:50;101951.53;;;16.36;66.13
71638;BME280;59485;43.542;-5.676;2022-09-21T03:06:16;101947.22;;;16.33;66.33
71638;BME280;59485;43.542;-5.676;2022-09-21T03:08:42;101942.91;;;16.24;66.78
71638;BME280;59485;43.542;-5.676;2022-09-21T03:11:07;101903.31;;;16.02;66.31
71638;BME280;59485;43.542;-5.676;2022-09-21T03:13:35;101938.22;;;16.25;66.67
71638;BME280;59485;43.542;-5.676;2022-09-21T03:16:03;101943.38;;;16.28;66.63
71638;BME280;59485;43.542;-5.676;2022-09-21T03:18:30;101944.00;;;16.30;66.42
71638;BME280;59485;43.542;-5.676;2022-09-21T03:20:56;101892.84;;;15.98;66.19
71638;BME280;59485;43.542;-5.676;2022-09-21T03:23:22;101928.34;;;16.16;66.00
71638;BME280;59485;43.542;-5.676;2022-09-21T03:25:47;101927.50;;;16.15;66.19
71638;BME280;59485;43.542;-5.676;2022-09-21T03:28:14;101912.41;;;15.96;66.14
71638;BME280;59485;43.542;-5.676;2022-09-21T03:30:41;101938.03;;;16.05;66.19
71638;BME280;59485;43.542;-5.676;2022-09-21T03:33:06;101906.78;;;15.83;66.78
71638;BME280;59485;43.542;-5.676;2022-09-21T03:35:33;101932.81;;;15.95;66.97
71638;BME280;59485;43.542;-5.676;2022-09-21T03:37:59;101916.09;;;15.82;67.03
71638;BME280;59485;43.542;-5.676;2022-09-21T03:40:24;101917.28;;;15.73;66.89
71638;BME280;59485;43.542;-5.676;2022-09-21T03:42:52;101931.75;;;15.75;67.26
71638;BME280;59485;43.542;-5.676;2022-09-21T03:45:18;101931.00;;;15.66;67.41
71638;BME280;59485;43.542;-5.676;2022-09-21T03:47:44;101924.13;;;15.56;67.49
71638;BME280;59485;43.542;-5.676;2022-09-21T03:50:10;101920.78;;;15.46;67.99
71638;BME280;59485;43.542;-5.676;2022-09-21T03:52:36;101924.88;;;15.35;68.13
71638;BME280;59485;43.542;-5.676;2022-09-21T03:55:04;101916.03;;;15.25;68.47
71638;BME280;59485;43.542;-5.676;2022-09-21T03:57:31;101908.72;;;15.17;68.74
71638;BME280;59485;43.542;-5.676;2022-09-21T03:59:59;101903.13;;;15.11;69.13
71638;BME280;59485;43.542;-5.676;2022-09-21T04:02:24;101896.00;;;15.01;69.58
71638;BME280;59485;43.542;-5.676;2022-09-21T04:04:50;101921.88;;;15.15;69.46
71638;BME280;59485;43.542;-5.676;2022-09-21T04:07:15;101883.22;;;14.86;69.30
71638;BME280;59485;43.542;-5.676;2022-09-21T04:09:41;101923.13;;;14.98;70.11
71638;BME280;59485;43.542;-5.676;2022-09-21T04:12:07;101925.41;;;14.94;70.48
71638;BME280;59485;43.542;-5.676;2022-09-21T04:14:32;101913.13;;;14.82;70.52
71638;BME280;59485;43.542;-5.676;2022-09-21T04:16:58;101898.19;;;14.62;70.79
71638;BME280;59485;43.542;-5.676;2022-09-21T04:19:24;101914.81;;;14.69;70.98
71638;BME280;59485;43.542;-5.676;2022-09-21T04:21:49;101891.00;;;14.38;71.50
71638;BME280;59485;43.542;-5.676;2022-09-21T04:24:20;101876.88;;;14.33;71.66
71638;BME280;59485;43.542;-5.676;2022-09-21T04:26:46;101924.63;;;14.56;71.93
71638;BME280;59485;43.542;-5.676;2022-09-21T04:29:13;101923.97;;;14.54;71.85
71638;BME280;59485;43.542;-5.676;2022-09-21T04:31:39;101926.22;;;14.51;71.86
71638;BME280;59485;43.542;-5.676;2022-09-21T04:34:05;101907.72;;;14.37;72.04
71638;BME280;59485;43.542;-5.676;2022-09-21T04:36:30;101884.66;;;14.15;72.27
71638;BME280;59485;43.542;-5.676;2022-09-21T04:38:59;101907.88;;;14.20;72.42
71638;BME280;59485;43.542;-5.676;2022-09-21T04:41:24;101922.66;;;14.27;72.49
71638;BME280;59485;43.542;-5.676;2022-09-21T04:43:50;101880.03;;;13.93;72.29
71638;BME280;59485;43.542;-5.676;2022-09-21T04:46:17;101931.84;;;14.20;72.42
71638;BME280;59485;43.542;-5.676;2022-09-21T04:48:43;101930.03;;;14.12;72.64
71638;BME280;59485;43.542;-5.676;2022-09-21T04:51:10;101935.03;;;14.09;73.44
71638;BME280;59485;43.542;-5.676;2022-09-21T04:53:37;101912.09;;;13.94;73.86
71638;BME280;59485;43.542;-5.676;2022-09-21T04:56:04;101917.97;;;13.90;73.92
71638;BME280;59485;43.542;-5.676;2022-09-21T04:58:33;101909.00;;;13.88;74.41
71638;BME280;59485;43.542;-5.676;2022-09-21T05:00:59;101930.63;;;14.00;74.49
71638;BME280;59485;43.542;-5.676;2022-09-21T05:03:25;101895.19;;;13.74;74.41
71638;BME280;59485;43.542;-5.676;2022-09-21T05:05:53;101932.78;;;13.89;74.92
71638;BME280;59485;43.542;-5.676;2022-09-21T05:08:20;101927.25;;;13.89;75.25
71638;BME280;59485;43.542;-5.676;2022-09-21T05:11:08;101918.31;;;13.87;75.02
71638;BME280;59485;43.542;-5.676;2022-09-21T05:13:34;101921.28;;;13.86;75.15
71638;BME280;59485;43.542;-5.676;2022-09-21T05:16:01;101925.53;;;13.88;74.71
71638;BME280;59485;43.542;-5.676;2022-09-21T05:18:26;101898.13;;;13.72;75.24
71638;BME280;59485;43.542;-5.676;2022-09-21T05:20:56;101912.94;;;13.71;74.73
71638;BME280;59485;43.542;-5.676;2022-09-21T05:23:22;101925.13;;;13.77;75.08
71638;BME280;59485;43.542;-5.676;2022-09-21T05:25:48;101921.13;;;13.79;74.77
71638;BME280;59485;43.542;-5.676;2022-09-21T05:28:15;101928.06;;;13.75;74.88
71638;BME280;59485;43.542;-5.676;2022-09-21T05:30:43;101927.03;;;13.76;75.07
71638;BME280;59485;43.542;-5.676;2022-09-21T05:33:12;101929.84;;;13.68;75.63
71638;BME280;59485;43.542;-5.676;2022-09-21T05:35:47;101925.03;;;13.62;75.88
71638;BME280;59485;43.542;-5.676;2022-09-21T05:38:18;101943.41;;;13.70;75.51
71638;BME280;59485;43.542;-5.676;2022-09-21T05:40:45;101941.91;;;13.67;75.26
71638;BME280;59485;43.542;-5.676;2022-09-21T05:43:12;101937.50;;;13.58;75.40
71638;BME280;59485;43.542;-5.676;2022-09-21T05:45:42;101930.94;;;13.59;75.40
71638;BME280;59485;43.542;-5.676;2022-09-21T05:48:22;101945.75;;;13.58;75.85
71638;BME280;59485;43.542;-5.676;2022-09-21T05:59:06;101931.00;;;13.43;77.22
71638;BME280;59485;43.542;-5.676;2022-09-21T06:04:23;101931.00;;;13.43;78.21
71638;BME280;59485;43.542;-5.676;2022-09-21T06:06:48;101929.50;;;13.40;77.63
71638;BME280;59485;43.542;-5.676;2022-09-21T06:09:14;101928.25;;;13.43;77.66
71638;BME280;59485;43.542;-5.676;2022-09-21T06:11:39;101934.63;;;13.43;77.51
71638;BME280;59485;43.542;-5.676;2022-09-21T06:14:05;101937.22;;;13.45;77.35
71638;BME280;59485;43.542;-5.676;2022-09-21T06:16:41;101933.25;;;13.47;77.33
71638;BME280;59485;43.542;-5.676;2022-09-21T06:19:10;101930.66;;;13.46;77.17
71638;BME280;59485;43.542;-5.676;2022-09-21T06:21:36;101944.09;;;13.49;77.09
71638;BME280;59485;43.542;-5.676;2022-09-21T06:24:01;101938.75;;;13.47;77.29
71638;BME280;59485;43.542;-5.676;2022-09-21T06:26:27;101929.69;;;13.39;77.49
71638;BME280;59485;43.542;-5.676;2022-09-21T06:28:53;101944.78;;;13.43;77.42
71638;BME280;59485;43.542;-5.676;2022-09-21T06:31:19;101932.31;;;13.32;77.40
71638;BME280;59485;43.542;-5.676;2022-09-21T06:33:44;101939.16;;;13.36;77.37
71638;BME280;59485;43.542;-5.676;2022-09-21T06:36:10;101940.34;;;13.34;77.76
71638;BME280;59485;43.542;-5.676;2022-09-21T06:38:35;101951.06;;;13.29;78.00
71638;BME280;59485;43.542;-5.676;2022-09-21T06:41:02;101942.69;;;13.22;78.44
71638;BME280;59485;43.542;-5.676;2022-09-21T06:43:29;101953.28;;;13.33;78.53
71638;BME280;59485;43.542;-5.676;2022-09-21T06:45:57;101948.78;;;13.40;78.01
71638;BME280;59485;43.542;-5.676;2022-09-21T06:48:23;101955.63;;;13.44;77.53
71638;BME280;59485;43.542;-5.676;2022-09-21T06:50:49;101953.84;;;13.51;77.54
71638;BME280;59485;43.542;-5.676;2022-09-21T06:53:15;101953.34;;;13.56;77.38
71638;BME280;59485;43.542;-5.676;2022-09-21T06:55:41;101954.31;;;13.63;77.46
71638;BME280;59485;43.542;-5.676;2022-09-21T06:58:06;101954.81;;;13.67;77.07
71638;BME280;59485;43.542;-5.676;2022-09-21T07:00:33;101961.50;;;13.72;76.74
71638;BME280;59485;43.542;-5.676;2022-09-21T07:02:59;101957.53;;;13.75;76.55
71638;BME280;59485;43.542;-5.676;2022-09-21T07:05:25;101960.97;;;13.77;76.54
71638;BME280;59485;43.542;-5.676;2022-09-21T07:07:55;101949.56;;;13.80;76.40
71638;BME280;59485;43.542;-5.676;2022-09-21T07:10:22;101954.84;;;13.89;76.53
71638;BME280;59485;43.542;-5.676;2022-09-21T07:12:47;101941.72;;;13.92;76.28
71638;BME280;59485;43.542;-5.676;2022-09-21T07:15:15;101928.97;;;13.90;76.44
71638;BME280;59485;43.542;-5.676;2022-09-21T07:17:40;101944.06;;;14.03;76.54
71638;BME280;59485;43.542;-5.676;2022-09-21T07:20:08;101923.78;;;13.96;76.59
71638;BME280;59485;43.542;-5.676;2022-09-21T07:22:35;101930.88;;;14.13;76.67
71638;BME280;59485;43.542;-5.676;2022-09-21T07:25:01;101942.72;;;14.21;76.14
71638;BME280;59485;43.542;-5.676;2022-09-21T07:27:28;101930.06;;;14.27;76.06
71638;BME280;59485;43.542;-5.676;2022-09-21T07:29:54;101919.38;;;14.24;75.95
71638;BME280;59485;43.542;-5.676;2022-09-21T07:32:20;101935.63;;;14.42;75.88
71638;BME280;59485;43.542;-5.676;2022-09-21T07:34:46;101928.88;;;14.44;75.83
71638;BME280;59485;43.542;-5.676;2022-09-21T07:37:12;101921.56;;;14.51;75.43
71638;BME280;59485;43.542;-5.676;2022-09-21T07:39:37;101925.97;;;14.60;75.27
71638;BME280;59485;43.542;-5.676;2022-09-21T07:42:04;101930.53;;;14.68;75.18
71638;BME280;59485;43.542;-5.676;2022-09-21T07:44:30;101927.03;;;14.74;75.00
71638;BME280;59485;43.542;-5.676;2022-09-21T07:46:55;101920.19;;;14.85;74.49
71638;BME280;59485;43.542;-5.676;2022-09-21T07:49:21;101927.31;;;14.94;74.03
71638;BME280;59485;43.542;-5.676;2022-09-21T07:51:46;101922.75;;;15.01;73.84
71638;BME280;59485;43.542;-5.676;2022-09-21T07:54:12;101932.47;;;15.12;73.31
71638;BME280;59485;43.542;-5.676;2022-09-21T07:56:39;101928.06;;;15.17;73.06
71638;BME280;59485;43.542;-5.676;2022-09-21T07:59:04;101923.66;;;15.23;72.77
71638;BME280;59485;43.542;-5.676;2022-09-21T08:01:34;101933.00;;;15.36;72.49
71638;BME280;59485;43.542;-5.676;2022-09-21T08:04:01;101929.25;;;15.44;72.30
71638;BME280;59485;43.542;-5.676;2022-09-21T08:06:28;101919.31;;;15.50;71.76
71638;BME280;59485;43.542;-5.676;2022-09-21T08:08:55;101920.94;;;15.59;71.83
71638;BME280;59485;43.542;-5.676;2022-09-21T08:11:21;101917.41;;;15.65;71.67
71638;BME280;59485;43.542;-5.676;2022-09-21T08:13:47;101911.56;;;15.74;71.36
71638;BME280;59485;43.542;-5.676;2022-09-21T08:16:13;101918.28;;;15.87;70.34
71638;BME280;59485;43.542;-5.676;2022-09-21T08:18:40;101913.47;;;15.95;70.16
71638;BME280;59485;43.542;-5.676;2022-09-21T08:21:06;101912.03;;;15.99;69.36
71638;BME280;59485;43.542;-5.676;2022-09-21T08:23:32;101917.28;;;16.16;69.44
71638;BME280;59485;43.542;-5.676;2022-09-21T08:25:59;101923.31;;;16.26;69.00
71638;BME280;59485;43.542;-5.676;2022-09-21T08:28:29;101904.63;;;16.28;68.78
71638;BME280;59485;43.542;-5.676;2022-09-21T08:31:03;101920.25;;;16.42;68.29
71638;BME280;59485;43.542;-5.676;2022-09-21T08:33:29;101928.41;;;16.50;68.61
71638;BME280;59485;43.542;-5.676;2022-09-21T08:35:57;101933.81;;;16.58;68.77
71638;BME280;59485;43.542;-5.676;2022-09-21T08:38:23;101933.00;;;16.64;68.73
71638;BME280;59485;43.542;-5.676;2022-09-21T08:40:51;101933.09;;;16.71;67.98
71638;BME280;59485;43.542;-5.676;2022-09-21T08:43:39;101929.69;;;16.75;67.82
71638;BME280;59485;43.542;-5.676;2022-09-21T08:46:12;101939.13;;;16.81;66.71
71638;BME280;59485;43.542;-5.676;2022-09-21T08:48:47;101939.75;;;16.83;67.03
71638;BME280;59485;43.542;-5.676;2022-09-21T08:51:20;101936.38;;;16.87;67.21
71638;BME280;59485;43.542;-5.676;2022-09-21T08:53:51;101941.31;;;16.92;67.70
71638;BME280;59485;43.542;-5.676;2022-09-21T08:56:19;101940.03;;;16.95;67.65
71638;BME280;59485;43.542;-5.676;2022-09-21T08:58:46;101938.59;;;16.99;67.61
71638;BME280;59485;43.542;-5.676;2022-09-21T09:01:47;101943.09;;;17.06;68.04
71638;BME280;59485;43.542;-5.676;2022-09-21T09:04:25;101942.06;;;17.07;68.19
71638;BME280;59485;43.542;-5.676;2022-09-21T09:09:53;101939.72;;;17.11;69.31
71638;BME280;59485;43.542;-5.676;2022-09-21T09:17:52;101945.75;;;17.27;72.29
71638;BME280;59485;43.542;-5.676;2022-09-21T09:20:28;101945.16;;;17.32;71.82
71638;BME280;59485;43.542;-5.676;2022-09-21T09:25:42;101944.56;;;17.43;70.37
71638;BME280;59485;43.542;-5.676;2022-09-21T09:28:24;101939.25;;;17.48;69.78
71638;BME280;59485;43.542;-5.676;2022-09-21T09:31:44;101924.72;;;17.46;68.47
71638;BME280;59485;43.542;-5.676;2022-09-21T09:33:50;101943.19;;;17.67;66.65
71638;BME280;59485;43.542;-5.676;2022-09-21T09:36:18;101921.22;;;17.66;67.14
71638;BME280;59485;43.542;-5.676;2022-09-21T09:39:16;101925.94;;;17.85;66.32
71638;BME280;59485;43.542;-5.676;2022-09-21T09:47:35;101917.88;;;18.10;65.38
71638;BME280;59485;43.542;-5.676;2022-09-21T09:50:14;101914.47;;;18.21;64.48
71638;BME280;59485;43.542;-5.676;2022-09-21T09:52:42;101906.16;;;18.21;64.58
71638;BME280;59485;43.542;-5.676;2022-09-21T09:55:17;101909.75;;;18.34;64.89
71638;BME280;59485;43.542;-5.676;2022-09-21T09:57:46;101909.34;;;18.37;64.30
71638;BME280;59485;43.542;-5.676;2022-09-21T10:00:13;101904.44;;;18.40;64.20
71638;BME280;59485;43.542;-5.676;2022-09-21T10:05:44;101908.03;;;18.53;64.18
71638;BME280;59485;43.542;-5.676;2022-09-21T10:11:04;101902.75;;;18.58;63.68
71638;BME280;59485;43.542;-5.676;2022-09-21T10:13:34;101889.25;;;18.55;63.85
71638;BME280;59485;43.542;-5.676;2022-09-21T10:16:04;101909.78;;;18.67;63.92
71638;BME280;59485;43.542;-5.676;2022-09-21T10:18:51;101890.56;;;18.66;63.82
71638;BME280;59485;43.542;-5.676;2022-09-21T10:21:24;101902.94;;;18.77;63.88
71638;BME280;59485;43.542;-5.676;2022-09-21T10:23:58;101902.91;;;18.70;64.68
71638;BME280;59485;43.542;-5.676;2022-09-21T10:26:30;101895.47;;;18.64;64.55
71638;BME280;59485;43.542;-5.676;2022-09-21T10:28:59;101903.78;;;18.70;65.29
71638;BME280;59485;43.542;-5.676;2022-09-21T10:31:27;101913.22;;;18.69;65.50
71638;BME280;59485;43.542;-5.676;2022-09-21T10:36:34;101906.34;;;18.72;65.89
71638;BME280;59485;43.542;-5.676;2022-09-21T10:42:04;101901.03;;;18.64;65.93
71638;BME280;59485;43.542;-5.676;2022-09-21T10:47:38;101895.69;;;18.69;65.98
71638;BME280;59485;43.542;-5.676;2022-09-21T10:50:25;101902.91;;;18.70;65.64
71638;BME280;59485;43.542;-5.676;2022-09-21T10:58:37;101888.38;;;18.81;65.65
71638;BME280;59485;43.542;-5.676;2022-09-21T11:01:21;101883.25;;;18.85;66.13
71638;BME280;59485;43.542;-5.676;2022-09-21T11:04:00;101890.50;;;18.86;66.35
71638;BME280;59485;43.542;-5.676;2022-09-21T11:06:39;101888.78;;;18.91;66.66
71638;BME280;59485;43.542;-5.676;2022-09-21T11:14:42;101893.88;;;19.01;66.88
71638;BME280;59485;43.542;-5.676;2022-09-21T11:22:47;101892.78;;;19.08;67.33
71638;BME280;59485;43.542;-5.676;2022-09-21T11:25:27;101879.56;;;18.97;66.74
71638;BME280;59485;43.542;-5.676;2022-09-21T11:28:04;101886.81;;;18.98;67.49
71638;BME280;59485;43.542;-5.676;2022-09-21T11:34:00;101869.50;;;19.03;67.17
71638;BME280;59485;43.542;-5.676;2022-09-21T11:44:32;101867.25;;;19.31;66.17
71638;BME280;59485;43.542;-5.676;2022-09-21T11:50:11;101862.94;;;19.35;65.87
71638;BME280;59485;43.542;-5.676;2022-09-21T11:56:55;101856.72;;;19.40;65.79
71638;BME280;59485;43.542;-5.676;2022-09-21T11:59:56;101868.66;;;19.54;65.53
71638;BME280;59485;43.542;-5.676;2022-09-21T12:02:21;101856.50;;;19.48;65.90
71638;BME280;59485;43.542;-5.676;2022-09-21T12:04:48;101861.22;;;19.41;67.18
71638;BME280;59485;43.542;-5.676;2022-09-21T12:07:40;101850.53;;;19.38;67.34
71638;BME280;59485;43.542;-5.676;2022-09-21T12:10:41;101869.31;;;19.42;67.83
71638;BME280;59485;43.542;-5.676;2022-09-21T12:13:23;101856.13;;;19.31;68.40
71638;BME280;59485;43.542;-5.676;2022-09-21T12:16:02;101853.56;;;19.30;68.94
71638;BME280;59485;43.542;-5.676;2022-09-21T12:21:19;101852.94;;;19.28;69.31
71638;BME280;59485;43.542;-5.676;2022-09-21T12:23:56;101853.94;;;19.40;68.78
71638;BME280;59485;43.542;-5.676;2022-09-21T12:26:33;101858.22;;;19.49;68.73
71638;BME280;59485;43.542;-5.676;2022-09-21T12:29:06;101853.50;;;19.50;68.95
71638;BME280;59485;43.542;-5.676;2022-09-21T12:31:47;101857.75;;;19.52;68.73
71638;BME280;59485;43.542;-5.676;2022-09-21T12:34:20;101845.31;;;19.55;68.22
71638;BME280;59485;43.542;-5.676;2022-09-21T12:37:01;101845.28;;;19.61;68.27
71638;BME280;59485;43.542;-5.676;2022-09-21T12:39:33;101840.75;;;19.67;67.70
71638;BME280;59485;43.542;-5.676;2022-09-21T12:42:32;101843.50;;;19.73;67.49
71638;BME280;59485;43.542;-5.676;2022-09-21T12:50:45;101843.78;;;19.90;66.53
71638;BME280;59485;43.542;-5.676;2022-09-21T12:53:16;101832.66;;;19.90;66.34
71638;BME280;59485;43.542;-5.676;2022-09-21T12:55:52;101829.22;;;19.95;66.05
71638;BME280;59485;43.542;-5.676;2022-09-21T13:01:12;101833.44;;;19.97;65.46
71638;BME280;59485;43.542;-5.676;2022-09-21T13:03:51;101829.44;;;19.93;66.33
71638;BME280;59485;43.542;-5.676;2022-09-21T13:09:20;101815.75;;;19.92;67.09
71638;BME280;59485;43.542;-5.676;2022-09-21T13:11:56;101811.25;;;19.91;65.94
71638;BME280;59485;43.542;-5.676;2022-09-21T13:14:27;101806.09;;;19.94;65.86
71638;BME280;59485;43.542;-5.676;2022-09-21T13:16:56;101818.38;;;20.05;64.81
71638;BME280;59485;43.542;-5.676;2022-09-21T13:19:24;101809.59;;;20.08;65.71
71638;BME280;59485;43.542;-5.676;2022-09-21T13:22:19;101802.53;;;20.05;64.97
71638;BME280;59485;43.542;-5.676;2022-09-21T13:24:59;101809.16;;;20.11;64.60
71638;BME280;59485;43.542;-5.676;2022-09-21T13:30:48;101797.09;;;20.17;64.99
71638;BME280;59485;43.542;-5.676;2022-09-21T13:38:33;101788.00;;;20.28;64.15
71638;BME280;59485;43.542;-5.676;2022-09-21T13:49:30;101792.69;;;20.52;62.73
71638;BME280;59485;43.542;-5.676;2022-09-21T13:52:19;101787.50;;;20.56;62.69
71638;BME280;59485;43.542;-5.676;2022-09-21T13:54:50;101777.59;;;20.60;62.81
71638;BME280;59485;43.542;-5.676;2022-09-21T13:57:22;101784.19;;;20.66;62.61
71638;BME280;59485;43.542;-5.676;2022-09-21T14:02:38;101778.66;;;20.77;61.79
71638;BME280;59485;43.542;-5.676;2022-09-21T14:05:25;101777.03;;;20.88;61.58
71638;BME280;59485;43.542;-5.676;2022-09-21T14:08:02;101774.47;;;20.86;61.59
71638;BME280;59485;43.542;-5.676;2022-09-21T14:10:32;101784.72;;;20.92;61.65
71638;BME280;59485;43.542;-5.676;2022-09-21T14:12:59;101779.50;;;20.96;62.29
71638;BME280;59485;43.542;-5.676;2022-09-21T14:15:30;101784.28;;;21.07;61.69
71638;BME280;59485;43.542;-5.676;2022-09-21T14:18:16;101788.56;;;21.10;61.06
71638;BME280;59485;43.542;-5.676;2022-09-21T14:21:11;101791.94;;;21.12;60.94
71638;BME280;59485;43.542;-5.676;2022-09-21T14:24:19;101785.88;;;21.15;60.73
71638;BME280;59485;43.542;-5.676;2022-09-21T14:26:49;101780.75;;;21.00;60.69
71638;BME280;59485;43.542;-5.676;2022-09-21T14:29:24;101782.13;;;21.09;61.44
71638;BME280;59485;43.542;-5.676;2022-09-21T14:31:56;101784.75;;;21.22;60.90
71638;BME280;59485;43.542;-5.676;2022-09-21T14:34:25;101778.06;;;21.23;60.67
71638;BME280;59485;43.542;-5.676;2022-09-21T14:36:55;101780.41;;;21.26;60.82
71638;BME280;59485;43.542;-5.676;2022-09-21T14:39:30;101786.50;;;21.35;60.27
71638;BME280;59485;43.542;-5.676;2022-09-21T14:42:00;101754.69;;;21.06;60.55
71638;BME280;59485;43.542;-5.676;2022-09-21T14:44:31;101780.00;;;21.23;60.36
71638;BME280;59485;43.542;-5.676;2022-09-21T14:47:24;101782.44;;;21.19;60.89
71638;BME280;59485;43.542;-5.676;2022-09-21T14:58:39;101780.31;;;21.15;60.28
71638;BME280;59485;43.542;-5.676;2022-09-21T15:10:29;101779.78;;;21.54;59.29
71638;BME280;59485;43.542;-5.676;2022-09-21T15:13:18;101771.88;;;21.51;58.72
71638;BME280;59485;43.542;-5.676;2022-09-21T15:15:56;101777.69;;;21.50;59.26
71638;BME280;59485;43.542;-5.676;2022-09-21T15:18:24;101773.50;;;21.70;57.92
71638;BME280;59485;43.542;-5.676;2022-09-21T15:20:58;101756.19;;;22.03;57.56
71638;BME280;59485;43.542;-5.676;2022-09-21T15:23:38;101775.97;;;22.49;56.81
71638;BME280;59485;43.542;-5.676;2022-09-21T15:26:09;101769.28;;;22.61;56.06
71638;BME280;59485;43.542;-5.676;2022-09-21T15:28:45;101758.47;;;22.53;55.62
71638;BME280;59485;43.542;-5.676;2022-09-21T15:31:17;101754.31;;;22.67;55.57
71638;BME280;59485;43.542;-5.676;2022-09-21T15:33:44;101765.16;;;23.04;54.33
71638;BME280;59485;43.542;-5.676;2022-09-21T15:36:33;101770.41;;;23.29;53.29
71638;BME280;59485;43.542;-5.676;2022-09-21T15:38:58;101772.34;;;23.28;53.39
71638;BME280;59485;43.542;-5.676;2022-09-21T15:41:46;101773.56;;;23.61;52.76